createdAt,value
2019-05-11T00:00:42.282Z,99.90
2019-05-11T00:03:12.610Z,99.90
2019-05-11T00:05:43.017Z,99.90
2019-05-11T00:08:13.418Z,99.90
2019-05-11T00:10:44.095Z,99.90
2019-05-11T00:13:14.592Z,99.90
2019-05-11T00:15:45.046Z,99.90
2019-05-11T00:18:16.563Z,99.90
2019-05-11T00:20:46.803Z,99.90
2019-05-11T00:23:17.135Z,99.90
2019-05-11T00:25:47.548Z,99.90
2019-05-11T00:28:18.137Z,99.90
2019-05-11T00:30:48.740Z,99.90
2019-05-11T00:33:19.353Z,99.90
2019-05-11T00:35:49.744Z,99.90
2019-05-11T00:38:20.004Z,99.90
2019-05-11T00:40:50.116Z,99.90
2019-05-11T00:43:20.335Z,99.90
2019-05-11T00:45:50.579Z,99.90
2019-05-11T00:48:20.643Z,99.90
2019-05-11T00:50:51.012Z,99.90
2019-05-11T00:53:21.686Z,99.90
2019-05-11T00:55:51.853Z,99.90
2019-05-11T00:58:21.977Z,99.90
2019-05-11T01:00:52.348Z,99.90
2019-05-11T01:03:23.004Z,99.90
2019-05-11T01:05:54.913Z,99.90
2019-05-11T01:08:25.554Z,99.90
2019-05-11T01:10:56.053Z,99.90
2019-05-11T01:13:27.136Z,99.90
2019-05-11T01:15:57.949Z,99.90
2019-05-11T01:18:28.604Z,99.90
2019-05-11T01:20:59.123Z,99.90
2019-05-11T01:23:29.895Z,99.90
2019-05-11T01:26:00.613Z,99.90
2019-05-11T01:28:31.061Z,99.90
2019-05-11T01:31:01.205Z,99.90
2019-05-11T01:33:31.808Z,99.90
2019-05-11T01:36:03.626Z,99.90
2019-05-11T01:38:34.241Z,99.90
2019-05-11T01:41:04.621Z,99.90
2019-05-11T01:43:34.897Z,99.90
2019-05-11T01:46:05.216Z,99.90
2019-05-11T01:48:35.623Z,99.90
2019-05-11T01:51:05.975Z,99.90
2019-05-11T01:53:37.535Z,99.90
2019-05-11T01:56:07.696Z,99.90
2019-05-11T01:58:37.830Z,99.90
2019-05-11T02:01:08.219Z,99.90
2019-05-11T02:03:38.548Z,99.90
2019-05-11T02:06:10.116Z,99.90
2019-05-11T02:08:40.618Z,99.90
2019-05-11T02:11:15.842Z,99.90
2019-05-11T02:13:44.362Z,99.90
2019-05-11T02:16:14.630Z,99.90
2019-05-11T02:18:45.081Z,99.90
2019-05-11T02:21:15.398Z,99.90
2019-05-11T02:23:45.837Z,99.90
2019-05-11T02:26:16.713Z,99.90
2019-05-11T02:28:47.351Z,99.90
2019-05-11T02:31:17.847Z,99.90
2019-05-11T02:33:48.236Z,99.90
2019-05-11T02:36:19.125Z,99.90
2019-05-11T02:38:49.431Z,99.90
2019-05-11T02:41:34.691Z,99.90
2019-05-11T02:43:51.367Z,99.90
2019-05-11T02:46:21.640Z,99.90
2019-05-11T02:48:51.943Z,99.90
2019-05-11T02:51:22.286Z,99.90
2019-05-11T02:53:53.698Z,99.90
2019-05-11T02:56:24.146Z,99.90
2019-05-11T02:58:54.595Z,99.90
2019-05-11T03:01:25.238Z,99.90
2019-05-11T03:03:55.995Z,99.90
2019-05-11T03:06:26.584Z,99.90
2019-05-11T03:08:56.979Z,99.90
2019-05-11T03:11:27.494Z,99.90
2019-05-11T03:13:57.958Z,99.90
2019-05-11T03:16:28.996Z,99.90
2019-05-11T03:18:59.344Z,99.90
2019-05-11T03:21:29.485Z,99.90
2019-05-11T03:23:59.633Z,99.90
2019-05-11T03:26:29.672Z,99.90
2019-05-11T03:28:59.825Z,99.90
2019-05-11T03:31:29.934Z,99.90
2019-05-11T03:34:00.262Z,99.90
2019-05-11T03:36:30.481Z,99.90
2019-05-11T03:39:00.882Z,99.90
2019-05-11T03:41:31.237Z,99.90
2019-05-11T03:44:01.748Z,99.90
2019-05-11T03:46:33.728Z,99.90
2019-05-11T03:49:04.057Z,99.90
2019-05-11T03:51:34.408Z,99.90
2019-05-11T03:54:05.448Z,99.90
2019-05-11T03:56:36.235Z,99.90
2019-05-11T03:59:06.403Z,99.90
2019-05-11T04:01:38.050Z,99.90
2019-05-11T04:04:08.254Z,1.00
2019-05-11T04:06:38.779Z,1.00
2019-05-11T04:09:09.349Z,1.00
2019-05-11T04:11:39.940Z,1.00
2019-05-11T04:14:10.570Z,1.00
2019-05-11T04:16:41.279Z,1.00
2019-05-11T04:19:11.546Z,1.00
2019-05-11T04:21:41.876Z,1.00
2019-05-11T04:24:12.003Z,1.00
2019-05-11T04:26:42.162Z,1.00
2019-05-11T04:29:12.623Z,1.00
2019-05-11T04:31:44.096Z,1.00
2019-05-11T04:34:14.316Z,1.00
2019-05-11T04:36:45.581Z,1.00
2019-05-11T04:39:16.303Z,1.00
2019-05-11T04:41:46.624Z,1.00
2019-05-11T04:44:16.972Z,1.00
2019-05-11T04:46:49.129Z,1.00
2019-05-11T04:49:19.522Z,1.00
2019-05-11T04:51:49.714Z,1.00
2019-05-11T04:54:20.284Z,1.00
2019-05-11T04:56:50.727Z,1.00
2019-05-11T04:59:20.944Z,1.00
2019-05-11T05:01:51.286Z,1.00
2019-05-11T05:04:24.285Z,1.00
2019-05-11T05:06:59.869Z,1.00
2019-05-11T05:09:26.505Z,1.00
2019-05-11T05:11:56.951Z,1.00
2019-05-11T05:14:27.015Z,1.00
2019-05-11T05:16:57.440Z,1.00
2019-05-11T05:19:27.744Z,1.00
2019-05-11T05:21:57.950Z,1.00
2019-05-11T05:24:29.208Z,1.00
2019-05-11T05:26:59.876Z,1.00
2019-05-11T05:29:30.843Z,1.00
2019-05-11T05:32:01.271Z,1.00
2019-05-11T05:34:31.899Z,1.00
2019-05-11T05:37:02.521Z,1.00
2019-05-11T05:39:33.201Z,1.00
2019-05-11T05:42:05.239Z,1.00
2019-05-11T05:44:35.382Z,1.00
2019-05-11T05:47:06.078Z,99.90
2019-05-11T05:49:37.230Z,99.90
2019-05-11T05:52:07.877Z,99.90
2019-05-11T05:54:38.931Z,99.90
2019-05-11T05:57:09.579Z,99.90
2019-05-11T05:59:39.887Z,99.90
2019-05-11T06:02:10.090Z,99.90
2019-05-11T06:04:40.634Z,99.90
2019-05-11T06:07:10.751Z,99.90
2019-05-11T06:09:40.969Z,99.90
2019-05-11T06:12:11.203Z,99.90
2019-05-11T06:14:41.541Z,99.90
2019-05-11T06:17:12.006Z,99.90
2019-05-11T06:19:42.479Z,99.90
2019-05-11T06:22:12.557Z,99.90
2019-05-11T06:24:42.717Z,99.90
2019-05-11T06:27:13.178Z,99.90
2019-05-11T06:29:43.485Z,99.90
2019-05-11T06:32:13.656Z,99.90
2019-05-11T06:34:44.163Z,99.90
2019-05-11T06:37:14.562Z,99.90
2019-05-11T06:39:44.886Z,99.90
2019-05-11T06:42:15.040Z,99.90
2019-05-11T06:44:45.186Z,99.90
2019-05-11T06:47:15.323Z,99.90
2019-05-11T06:49:45.497Z,99.90
2019-05-11T06:52:15.867Z,99.90
2019-05-11T06:54:46.127Z,99.90
2019-05-11T06:57:16.206Z,99.90
2019-05-11T06:59:46.342Z,99.90
2019-05-11T07:02:16.610Z,99.90
2019-05-11T07:04:46.787Z,99.90
2019-05-11T07:07:17.017Z,99.90
2019-05-11T07:09:47.429Z,99.90
2019-05-11T07:12:17.826Z,99.90
2019-05-11T07:14:48.113Z,99.90
2019-05-11T07:17:18.555Z,99.90
2019-05-11T07:19:48.663Z,99.90
2019-05-11T07:22:18.953Z,99.90
2019-05-11T07:24:49.130Z,99.90
2019-05-11T07:27:19.287Z,99.90
2019-05-11T07:29:49.494Z,99.90
2019-05-11T07:32:25.020Z,99.90
2019-05-11T07:34:51.520Z,99.90
2019-05-11T07:37:24.247Z,99.90
2019-05-11T07:39:53.479Z,99.90
2019-05-11T07:42:23.715Z,99.90
2019-05-11T07:44:53.989Z,99.90
2019-05-11T07:47:24.093Z,99.90
2019-05-11T07:49:54.159Z,99.90
2019-05-11T07:52:24.520Z,99.90
2019-05-11T07:54:55.155Z,99.90
2019-05-11T07:57:25.647Z,99.90
2019-05-11T07:59:57.739Z,99.90
2019-05-11T08:02:29.277Z,99.90
2019-05-11T08:04:59.758Z,99.60
2019-05-11T08:07:30.090Z,99.70
2019-05-11T08:10:00.513Z,99.90
2019-05-11T08:12:30.997Z,98.00
2019-05-11T08:15:09.065Z,99.90
2019-05-11T08:17:33.166Z,99.00
2019-05-11T08:20:03.715Z,96.00
2019-05-11T08:22:33.847Z,95.30
2019-05-11T08:25:05.645Z,94.50
2019-05-11T08:27:37.885Z,87.00
2019-05-11T08:30:14.172Z,95.50
2019-05-11T08:32:44.543Z,93.90
2019-05-11T08:35:17.779Z,94.50
2019-05-11T08:37:47.900Z,92.70
2019-05-11T08:40:19.838Z,92.60
2019-05-11T08:42:50.081Z,92.80
2019-05-11T08:45:24.447Z,87.80
2019-05-11T08:47:52.109Z,88.30
2019-05-11T08:50:22.176Z,88.20
2019-05-11T08:52:52.527Z,87.70
2019-05-11T08:55:22.732Z,91.60
2019-05-11T08:57:53.050Z,92.00
2019-05-11T09:00:23.297Z,87.80
2019-05-11T09:02:53.669Z,87.90
2019-05-11T09:05:23.997Z,84.60
2019-05-11T09:07:54.036Z,88.10
2019-05-11T09:10:24.342Z,88.30
2019-05-11T09:12:54.532Z,81.70
2019-05-11T09:15:33.474Z,81.20
2019-05-11T09:17:57.746Z,82.20
2019-05-11T09:20:28.632Z,80.60
2019-05-11T09:22:59.102Z,79.90
2019-05-11T09:25:29.420Z,79.50
2019-05-11T09:27:59.547Z,86.70
2019-05-11T09:30:29.967Z,87.00
2019-05-11T09:33:00.304Z,87.80
2019-05-11T09:35:30.975Z,82.20
2019-05-11T09:38:01.383Z,79.00
2019-05-11T09:40:31.675Z,80.80
2019-05-11T09:43:01.823Z,83.80
2019-05-11T09:45:44.726Z,87.40
2019-05-11T09:48:04.132Z,82.90
2019-05-11T09:50:35.326Z,86.90
2019-05-11T09:53:05.460Z,87.50
2019-05-11T09:55:38.713Z,84.50
2019-05-11T09:58:08.598Z,83.90
2019-05-11T10:00:39.614Z,85.30
2019-05-11T10:03:09.979Z,84.00
2019-05-11T10:05:40.380Z,83.50
2019-05-11T10:08:10.950Z,87.40
2019-05-11T10:10:41.801Z,87.40
2019-05-11T10:13:12.160Z,82.30
2019-05-11T10:15:42.414Z,87.10
2019-05-11T10:18:12.913Z,87.20
2019-05-11T10:20:43.267Z,87.30
2019-05-11T10:23:13.486Z,87.20
2019-05-11T10:25:43.716Z,87.00
2019-05-11T10:28:14.163Z,87.20
2019-05-11T10:30:44.768Z,87.10
2019-05-11T10:33:14.795Z,87.50
2019-05-11T10:35:44.967Z,87.50
2019-05-11T10:38:15.263Z,87.40
2019-05-11T10:40:47.875Z,84.80
2019-05-11T10:43:18.350Z,86.80
2019-05-11T10:45:49.087Z,86.90
2019-05-11T10:48:19.954Z,87.40
2019-05-11T10:50:51.977Z,89.80
2019-05-11T10:53:22.385Z,86.50
2019-05-11T10:55:52.904Z,90.00
2019-05-11T10:58:23.895Z,86.80
2019-05-11T11:00:54.496Z,86.30
2019-05-11T11:03:24.809Z,90.00
2019-05-11T11:05:55.291Z,90.60
2019-05-11T11:08:27.656Z,88.60
2019-05-11T11:10:58.595Z,89.90
2019-05-11T11:13:28.906Z,90.90
2019-05-11T11:16:01.917Z,90.80
2019-05-11T11:18:30.759Z,92.40
2019-05-11T11:21:01.199Z,88.30
2019-05-11T11:23:31.638Z,91.40
2019-05-11T11:26:01.872Z,92.40
2019-05-11T11:28:32.176Z,91.70
2019-05-11T11:31:02.255Z,91.80
2019-05-11T11:33:32.521Z,92.10
2019-05-11T11:36:03.042Z,91.60
2019-05-11T11:38:33.216Z,92.80
2019-05-11T11:41:03.518Z,91.80
2019-05-11T11:43:34.080Z,92.90
2019-05-11T11:46:08.240Z,92.30
2019-05-11T11:48:38.391Z,94.00
2019-05-11T11:51:08.175Z,93.10
2019-05-11T11:53:38.678Z,92.60
2019-05-11T11:56:09.022Z,93.40
2019-05-11T11:58:39.122Z,92.40
2019-05-11T12:01:09.242Z,92.10
2019-05-11T12:03:39.712Z,92.90
2019-05-11T12:06:10.161Z,91.60
2019-05-11T12:08:40.458Z,89.00
2019-05-11T12:11:11.220Z,90.40
2019-05-11T12:13:41.528Z,90.20
2019-05-11T12:16:11.738Z,91.30
2019-05-11T12:18:43.307Z,91.30
2019-05-11T12:21:13.699Z,91.30
2019-05-11T12:23:43.969Z,86.80
2019-05-11T12:26:14.296Z,90.80
2019-05-11T12:28:44.387Z,90.50
2019-05-11T12:31:14.934Z,90.80
2019-05-11T12:33:45.341Z,90.20
2019-05-11T12:36:15.707Z,91.80
2019-05-11T12:38:48.911Z,92.70
2019-05-11T12:41:19.487Z,91.90
2019-05-11T12:43:49.640Z,86.40
2019-05-11T12:46:19.944Z,91.70
2019-05-11T12:48:49.956Z,91.50
2019-05-11T12:51:20.146Z,93.10
2019-05-11T12:53:50.485Z,94.00
2019-05-11T12:56:20.721Z,94.80
2019-05-11T12:58:50.913Z,92.50
2019-05-11T13:01:21.512Z,93.30
2019-05-11T13:03:51.618Z,92.60
2019-05-11T13:06:21.839Z,92.80
2019-05-11T13:08:51.830Z,90.00
2019-05-11T13:11:22.186Z,91.90
2019-05-11T13:13:52.597Z,92.40
2019-05-11T13:16:22.897Z,91.90
2019-05-11T13:18:54.590Z,91.30
2019-05-11T13:21:24.521Z,90.90
2019-05-11T13:23:54.837Z,92.10
2019-05-11T13:26:25.023Z,92.00
2019-05-11T13:28:55.067Z,92.40
2019-05-11T13:31:27.684Z,90.50
2019-05-11T13:33:58.594Z,91.10
2019-05-11T13:36:28.726Z,92.10
2019-05-11T13:38:58.944Z,92.50
2019-05-11T13:41:29.244Z,92.70
2019-05-11T13:43:59.483Z,91.20
2019-05-11T13:46:29.565Z,91.70
2019-05-11T13:49:01.547Z,91.20
2019-05-11T13:51:31.920Z,90.80
2019-05-11T13:54:02.112Z,90.80
2019-05-11T13:56:32.456Z,91.10
2019-05-11T13:59:04.204Z,88.30
2019-05-11T14:01:34.422Z,91.70
2019-05-11T14:04:04.938Z,90.90
2019-05-11T14:06:35.231Z,90.00
2019-05-11T14:09:07.908Z,90.80
2019-05-11T14:11:39.043Z,87.50
2019-05-11T14:14:09.465Z,89.60
2019-05-11T14:16:40.053Z,85.00
2019-05-11T14:19:11.396Z,88.50
2019-05-11T14:21:41.579Z,90.50
2019-05-11T14:24:12.113Z,87.50
2019-05-11T14:26:42.466Z,89.10
2019-05-11T14:29:12.832Z,89.60
2019-05-11T14:31:43.122Z,88.60
2019-05-11T14:34:13.206Z,88.40
2019-05-11T14:36:43.440Z,90.50
2019-05-11T14:39:13.525Z,85.10
2019-05-11T14:41:43.810Z,84.70
2019-05-11T14:44:13.939Z,90.40
2019-05-11T14:46:44.037Z,91.50
2019-05-11T14:49:14.586Z,88.20
2019-05-11T14:51:44.793Z,90.80
2019-05-11T14:54:15.228Z,90.70
2019-05-11T14:56:45.276Z,92.40
2019-05-11T14:59:18.167Z,91.30
2019-05-11T15:01:49.000Z,91.10
2019-05-11T15:04:20.640Z,92.10
2019-05-11T15:06:51.061Z,91.80
2019-05-11T15:09:21.139Z,92.60
2019-05-11T15:11:52.695Z,91.50
2019-05-11T15:14:23.377Z,91.60
2019-05-11T15:16:53.437Z,92.60
2019-05-11T15:19:23.678Z,91.80
2019-05-11T15:21:53.854Z,92.20
2019-05-11T15:24:24.057Z,92.50
2019-05-11T15:26:54.283Z,92.90
2019-05-11T15:29:24.574Z,93.00
2019-05-11T15:31:54.533Z,93.00
2019-05-11T15:34:25.035Z,92.90
2019-05-11T15:36:58.127Z,93.00
2019-05-11T15:39:28.717Z,92.60
2019-05-11T15:42:09.135Z,93.10
2019-05-11T15:44:30.960Z,93.30
2019-05-11T15:47:01.070Z,92.90
2019-05-11T15:49:31.267Z,94.00
2019-05-11T15:52:01.337Z,93.30
2019-05-11T15:54:31.421Z,94.20
2019-05-11T15:57:01.669Z,94.20
2019-05-11T15:59:31.738Z,95.20
2019-05-11T16:02:01.877Z,95.60
2019-05-11T16:04:31.984Z,94.60
2019-05-11T16:07:02.253Z,94.70
2019-05-11T16:09:32.422Z,95.00
2019-05-11T16:12:02.420Z,96.30
2019-05-11T16:14:32.610Z,97.10
2019-05-11T16:17:02.727Z,96.30
2019-05-11T16:19:32.800Z,95.90
2019-05-11T16:22:02.957Z,96.00
2019-05-11T16:24:33.077Z,95.80
2019-05-11T16:27:03.172Z,97.00
2019-05-11T16:29:33.371Z,96.60
2019-05-11T16:32:03.533Z,96.50
2019-05-11T16:34:33.512Z,96.20
2019-05-11T16:37:05.342Z,97.40
2019-05-11T16:39:35.327Z,96.50
2019-05-11T16:42:05.429Z,95.60
2019-05-11T16:44:37.742Z,95.20
2019-05-11T16:47:07.933Z,96.80
2019-05-11T16:49:38.570Z,96.30
2019-05-11T16:52:10.220Z,96.90
2019-05-11T16:54:40.466Z,97.10
2019-05-11T16:57:10.588Z,97.30
2019-05-11T16:59:40.808Z,97.80
2019-05-11T17:02:10.811Z,97.70
2019-05-11T17:04:40.869Z,98.00
2019-05-11T17:07:11.202Z,98.20
2019-05-11T17:09:41.301Z,98.30
2019-05-11T17:12:11.404Z,98.80
2019-05-11T17:14:55.759Z,99.40
2019-05-11T17:17:27.779Z,98.90
2019-05-11T17:19:58.915Z,99.20
2019-05-11T17:22:29.284Z,99.50
2019-05-11T17:24:59.471Z,99.90
2019-05-11T17:27:29.453Z,99.90
2019-05-11T17:29:59.455Z,99.90
2019-05-11T17:32:30.700Z,99.90
2019-05-11T17:35:01.122Z,99.90
2019-05-11T17:37:31.453Z,99.90
2019-05-11T17:40:01.906Z,99.90
2019-05-11T17:42:33.818Z,99.90
2019-05-11T17:45:05.423Z,99.90
2019-05-11T17:47:35.630Z,99.90
2019-05-11T17:50:09.515Z,99.90
2019-05-11T17:52:40.220Z,99.90
2019-05-11T17:55:10.754Z,99.90
2019-05-11T17:57:41.040Z,99.90
2019-05-11T18:00:11.724Z,99.90
2019-05-11T18:02:41.870Z,99.90
2019-05-11T18:05:12.787Z,99.90
2019-05-11T18:07:43.823Z,99.90
2019-05-11T18:10:14.390Z,99.90
2019-05-11T18:12:44.706Z,99.90
2019-05-11T18:15:15.604Z,99.90
2019-05-11T18:17:48.147Z,99.90
2019-05-11T18:20:21.859Z,99.90
2019-05-11T18:22:51.038Z,99.90
2019-05-11T18:25:21.242Z,99.90
2019-05-11T18:27:51.601Z,99.90
2019-05-11T18:30:22.023Z,99.90
2019-05-11T18:32:52.339Z,99.90
2019-05-11T18:35:22.664Z,99.90
2019-05-11T18:37:52.743Z,99.90
2019-05-11T18:40:23.016Z,99.90
2019-05-11T18:42:53.464Z,99.90
2019-05-11T18:45:23.883Z,99.90
2019-05-11T18:47:54.064Z,99.90
2019-05-11T18:50:30.427Z,99.90
2019-05-11T18:52:58.048Z,99.90
2019-05-11T18:55:28.184Z,99.90
2019-05-11T18:57:58.360Z,99.90
2019-05-11T19:00:28.634Z,99.90
2019-05-11T19:02:59.030Z,99.90
2019-05-11T19:05:29.417Z,99.90
2019-05-11T19:07:59.548Z,99.90
2019-05-11T19:10:29.864Z,99.90
2019-05-11T19:12:59.976Z,99.90
2019-05-11T19:15:30.946Z,99.90
2019-05-11T19:18:01.135Z,99.90
2019-05-11T19:20:44.617Z,99.90
2019-05-11T19:23:03.402Z,99.90
2019-05-11T19:25:33.921Z,99.90
2019-05-11T19:28:04.407Z,99.90
2019-05-11T19:30:34.830Z,99.90
2019-05-11T19:33:05.245Z,99.90
2019-05-11T19:35:37.712Z,99.90
2019-05-11T19:38:08.704Z,99.90
2019-05-11T19:40:39.300Z,99.90
2019-05-11T19:43:09.755Z,99.90
2019-05-11T19:45:42.293Z,99.90
2019-05-11T19:48:11.923Z,99.90
2019-05-11T19:50:42.219Z,99.90
2019-05-11T19:53:14.057Z,99.90
2019-05-11T19:55:44.494Z,99.90
2019-05-11T19:58:14.865Z,99.90
2019-05-11T20:00:45.035Z,99.90
2019-05-11T20:03:15.194Z,99.90
2019-05-11T20:05:45.615Z,99.90
2019-05-11T20:08:15.771Z,99.90
2019-05-11T20:10:48.623Z,99.90
2019-05-11T20:13:19.039Z,99.90
2019-05-11T20:15:49.301Z,99.90
2019-05-11T20:18:19.698Z,99.90
2019-05-11T20:20:49.857Z,99.90
2019-05-11T20:23:21.001Z,99.90
2019-05-11T20:25:51.299Z,99.90
2019-05-11T20:28:22.069Z,99.90
2019-05-11T20:30:52.315Z,99.90
2019-05-11T20:33:22.918Z,99.90
2019-05-11T20:35:53.209Z,99.90
2019-05-11T20:38:23.410Z,99.90
2019-05-11T20:40:53.787Z,99.90
2019-05-11T20:43:24.197Z,99.90
2019-05-11T20:45:56.195Z,99.90
2019-05-11T20:48:27.745Z,99.90
2019-05-11T20:50:59.152Z,99.90
2019-05-11T20:53:29.265Z,99.90
2019-05-11T20:56:00.453Z,99.90
2019-05-11T20:58:32.272Z,99.90
2019-05-11T21:01:02.751Z,99.90
2019-05-11T21:03:33.341Z,99.90
2019-05-11T21:06:03.873Z,99.90
2019-05-11T21:08:34.606Z,99.90
2019-05-11T21:11:04.939Z,99.90
2019-05-11T21:13:35.417Z,99.90
2019-05-11T21:16:05.904Z,99.90
2019-05-11T21:18:38.124Z,99.90
2019-05-11T21:21:08.204Z,99.90
2019-05-11T21:23:40.651Z,99.90
2019-05-11T21:26:10.664Z,99.90
2019-05-11T21:28:40.951Z,99.90
2019-05-11T21:31:11.025Z,99.90
2019-05-11T21:33:41.221Z,99.90
2019-05-11T21:36:11.518Z,99.90
2019-05-11T21:38:41.592Z,99.90
2019-05-11T21:41:11.828Z,99.90
2019-05-11T21:43:42.540Z,99.90
2019-05-11T21:46:12.561Z,99.90
2019-05-11T21:48:43.039Z,99.90
2019-05-11T21:51:13.557Z,99.90
2019-05-11T21:53:43.758Z,99.90
2019-05-11T21:56:14.064Z,99.90
2019-05-11T21:58:44.457Z,99.90
2019-05-11T22:01:18.415Z,99.90
2019-05-11T22:03:48.291Z,99.90
2019-05-11T22:06:18.651Z,99.90
2019-05-11T22:08:50.820Z,99.90
2019-05-11T22:11:20.922Z,99.90
2019-05-11T22:13:51.540Z,99.90
2019-05-11T22:16:22.271Z,99.90
2019-05-11T22:18:52.601Z,99.90
2019-05-11T22:21:23.153Z,99.90
2019-05-11T22:23:54.026Z,99.90
2019-05-11T22:26:24.811Z,99.90
2019-05-11T22:28:55.353Z,99.90
2019-05-11T22:31:27.859Z,99.90
2019-05-11T22:33:58.319Z,99.90
2019-05-11T22:36:28.817Z,99.90
2019-05-11T22:38:59.733Z,99.90
2019-05-11T22:41:30.042Z,99.90
2019-05-11T22:44:00.468Z,99.90
2019-05-11T22:46:30.879Z,99.90
2019-05-11T22:49:01.196Z,99.90
2019-05-11T22:51:31.639Z,99.90
2019-05-11T22:54:01.968Z,99.90
2019-05-11T22:56:32.276Z,99.90
2019-05-11T22:59:03.039Z,99.90
2019-05-11T23:01:34.767Z,99.90
2019-05-11T23:04:05.403Z,99.90
2019-05-11T23:06:35.770Z,99.90
2019-05-11T23:09:08.082Z,99.90
2019-05-11T23:11:38.245Z,99.90
2019-05-11T23:14:10.045Z,99.90
2019-05-11T23:16:40.648Z,99.90
2019-05-11T23:19:11.190Z,99.90
2019-05-11T23:21:41.347Z,99.90
2019-05-11T23:24:11.562Z,99.90
2019-05-11T23:26:42.136Z,99.90
2019-05-11T23:29:12.487Z,99.90
2019-05-11T23:31:42.573Z,99.90
2019-05-11T23:34:12.760Z,99.90
2019-05-11T23:36:43.081Z,99.90
2019-05-11T23:39:13.653Z,99.90
2019-05-11T23:41:44.082Z,99.90
2019-05-11T23:44:14.592Z,99.90
2019-05-11T23:46:44.822Z,99.90
2019-05-11T23:49:15.043Z,99.90
2019-05-11T23:51:45.322Z,99.90
2019-05-11T23:54:18.361Z,99.90
2019-05-11T23:56:48.010Z,99.90
2019-05-11T23:59:18.812Z,99.90
